Aérodrome :







RETROUVEZ-NOUS SUR...

 
LOGIN :

S'inscrire | Disclaimer

   EN    FR    IT 

 









Légende :    VFR   VFR Marginal   IFR   IFR Intensif   IFR Très Intensif
Visi : 
Plafond : 
>= 8 km
>= 3000ft
5 à 8 km
1000 à 3000 ft
1500m à 5 km
500 à 1000 ft
800 à 1500m
200 à 500 ft
< 800m
< 200 ft
Symboles :   Orages  Brouillard  Fortes neiges  Fortes précipitations  Vent > 20 kt






- Altitude de l'aérodrome : 787 ft
- Code IATA : RUT


KRUT - Rutland - Southern Vermont Regional

DERNIER METAR :
  • 172156Z AUTO 35006KT 10SM CLR M16/M21 A3067 RMK AO2 SLP399 T11561206 FZRANO $

METARs EXPIRÉS :
  • 172056Z AUTO 34006KT 10SM CLR M13/M21 A3065 RMK AO2 SLP391 T11281206 53005 FZRANO $
  • 171956Z AUTO 35009KT 10SM CLR M12/M18 A3063 RMK AO2 SLP387 T11171183 FZRANO $
  • 171856Z AUTO 34009KT 10SM CLR M12/M19 A3062 RMK AO2 SLP383 T11221189 FZRANO $

TAF KRUT
Valide du 17 à 18h jusqu'au 18 à 18h UTC


171720Z 1718/1818 32010G17KT P6SM SKC
FM172300 VRB04KT P6SM SKC
FM180600 12004KT P6SM SKC
FM181100 12004KT P6SM BKN120



MET'MAP, la Météo Aéronautique d'un coup d'oeil ! - Copyright ORBIFLY Décembre 2007 - Disclaimer

ORBIFLY MET'MAP TEAM :

Programmation & Développement : Alexandra Zaïnal
Sur une idée originale de : Baudouin d'Aumeries
Assistance à la programmation : Marc-Olivier Méhu
Soutien technique & logistique : Manuel Goepfert

Contact : metmap@orbifly.com




SOURCES & CREDITS :

   NOAA